createdAt,value
2018-09-24T00:00:58.240Z,3.00
2018-09-24T00:01:58.246Z,3.20
2018-09-24T00:02:59.042Z,3.00
2018-09-24T00:03:58.254Z,3.30
2018-09-24T00:04:58.261Z,3.20
2018-09-24T00:05:58.249Z,3.10
2018-09-24T00:06:58.250Z,3.10
2018-09-24T00:07:58.226Z,2.90
2018-09-24T00:08:58.221Z,2.90
2018-09-24T00:09:58.230Z,3.20
2018-09-24T00:10:58.251Z,2.80
2018-09-24T00:11:58.248Z,3.40
2018-09-24T00:12:58.227Z,3.20
2018-09-24T00:13:58.235Z,3.20
2018-09-24T00:14:58.251Z,3.10
2018-09-24T00:15:58.272Z,3.50
2018-09-24T00:16:58.251Z,3.10
2018-09-24T00:17:58.243Z,3.50
2018-09-24T00:18:58.230Z,3.10
2018-09-24T00:19:58.241Z,3.80
2018-09-24T00:20:58.227Z,3.00
2018-09-24T00:21:58.212Z,3.40
2018-09-24T00:22:58.224Z,3.70
2018-09-24T00:23:58.232Z,2.70
2018-09-24T00:24:58.230Z,3.20
2018-09-24T00:25:58.230Z,2.80
2018-09-24T00:26:58.227Z,3.40
2018-09-24T00:27:58.229Z,3.20
2018-09-24T00:28:58.222Z,3.30
2018-09-24T00:29:58.231Z,3.00
2018-09-24T00:30:58.254Z,3.10
2018-09-24T00:31:58.239Z,3.60
2018-09-24T00:32:58.215Z,2.90
2018-09-24T00:33:58.271Z,3.20
2018-09-24T00:34:58.222Z,2.80
2018-09-24T00:35:58.229Z,3.40
2018-09-24T00:36:58.249Z,3.30
2018-09-24T00:37:58.248Z,3.40
2018-09-24T00:38:58.222Z,3.30
2018-09-24T00:39:58.333Z,3.30
2018-09-24T00:40:58.250Z,2.70
2018-09-24T00:41:58.268Z,3.20
2018-09-24T00:42:58.223Z,3.50
2018-09-24T00:43:58.225Z,3.00
2018-09-24T00:44:58.229Z,3.30
2018-09-24T00:45:58.217Z,3.30
2018-09-24T00:46:58.224Z,3.40
2018-09-24T00:47:58.221Z,3.10
2018-09-24T00:48:58.256Z,3.20
2018-09-24T00:49:58.265Z,3.50
2018-09-24T00:50:58.265Z,3.30
2018-09-24T00:51:58.301Z,3.20
2018-09-24T00:52:58.236Z,3.10
2018-09-24T00:53:58.230Z,3.20
2018-09-24T00:54:58.241Z,3.20
2018-09-24T00:55:58.242Z,3.10
2018-09-24T00:56:58.236Z,3.30
2018-09-24T00:57:58.225Z,3.20
2018-09-24T00:58:58.232Z,3.30
2018-09-24T00:59:58.244Z,3.10
2018-09-24T01:00:58.271Z,3.30
2018-09-24T01:01:58.311Z,3.10
2018-09-24T01:02:58.256Z,3.30
2018-09-24T01:03:58.377Z,3.40
2018-09-24T01:04:58.272Z,3.70
2018-09-24T01:05:58.247Z,3.20
2018-09-24T01:06:58.308Z,3.20
2018-09-24T01:07:58.246Z,3.40
2018-09-24T01:08:58.241Z,3.70
2018-09-24T01:09:58.265Z,3.30
2018-09-24T01:10:58.270Z,3.00
2018-09-24T01:11:58.241Z,3.60
2018-09-24T01:12:58.257Z,3.00
2018-09-24T01:13:58.324Z,3.00
2018-09-24T01:14:58.285Z,3.10
2018-09-24T01:15:58.369Z,3.50
2018-09-24T01:16:58.371Z,3.00
2018-09-24T01:17:58.271Z,3.30
2018-09-24T01:18:58.242Z,3.30
2018-09-24T01:19:58.234Z,2.90
2018-09-24T01:20:58.249Z,3.10
2018-09-24T01:21:58.298Z,3.50
2018-09-24T01:22:58.252Z,3.30
2018-09-24T01:23:58.312Z,3.30
2018-09-24T01:24:58.253Z,3.00
2018-09-24T01:25:58.322Z,3.40
2018-09-24T01:26:58.264Z,3.00
2018-09-24T01:27:58.242Z,3.50
2018-09-24T01:28:58.234Z,3.40
2018-09-24T01:42:38.327Z,3.20
2018-09-24T01:43:17.332Z,3.20
2018-09-24T01:44:17.348Z,3.20
2018-09-24T01:45:19.683Z,3.10
2018-09-24T01:46:26.658Z,3.10
2018-09-24T01:48:18.652Z,3.10
2018-09-24T01:49:22.133Z,3.40
2018-09-24T01:50:25.133Z,3.10
2018-09-24T01:51:18.652Z,3.90
2018-09-24T01:52:21.643Z,2.70
2018-09-24T01:53:19.145Z,2.90
2018-09-24T01:54:19.216Z,3.00
2018-09-24T01:55:23.651Z,3.30
2018-09-24T01:56:21.135Z,3.30
2018-09-24T01:57:21.150Z,3.10
2018-09-24T01:58:20.637Z,3.20
2018-09-24T01:59:22.141Z,3.10
2018-09-24T02:00:21.166Z,3.00
2018-09-24T02:01:18.656Z,3.70
2018-09-24T02:02:19.658Z,3.10
2018-09-24T02:03:22.647Z,2.80
2018-09-24T02:04:19.147Z,3.10
2018-09-24T02:05:19.659Z,3.60
2018-09-24T02:06:17.328Z,3.10
2018-09-24T02:07:18.193Z,3.50
2018-09-24T02:08:21.143Z,3.10
2018-09-24T02:09:17.383Z,3.40
2018-09-24T02:10:19.640Z,3.70
2018-09-24T02:11:17.348Z,2.90
2018-09-24T02:12:18.656Z,3.30
2018-09-24T02:13:17.392Z,3.70
2018-09-24T02:14:17.318Z,2.70
2018-09-24T02:15:17.365Z,3.40
2018-09-24T02:16:17.365Z,3.10
2018-09-24T02:17:17.347Z,3.50
2018-09-24T02:18:17.365Z,3.20
2018-09-24T02:19:17.364Z,3.50
2018-09-24T02:20:17.315Z,3.10
2018-09-24T02:21:17.329Z,3.20
2018-09-24T02:22:18.140Z,3.40
2018-09-24T02:23:17.326Z,3.50
2018-09-24T02:24:17.364Z,3.00
2018-09-24T02:25:17.325Z,3.30
2018-09-24T02:26:17.356Z,3.20
2018-09-24T02:27:17.366Z,3.20
2018-09-24T02:28:17.354Z,3.30
2018-09-24T02:29:17.365Z,2.90
2018-09-24T02:30:17.331Z,2.90
2018-09-24T02:31:17.370Z,3.10
2018-09-24T02:32:17.364Z,3.10
2018-09-24T02:33:17.356Z,3.40
2018-09-24T02:34:17.333Z,3.00
2018-09-24T02:35:17.412Z,3.30
2018-09-24T02:36:17.330Z,3.50
2018-09-24T02:37:17.335Z,3.60
2018-09-24T02:38:17.383Z,3.40
2018-09-24T02:39:17.352Z,3.20
2018-09-24T02:40:17.392Z,3.50
2018-09-24T02:41:17.330Z,3.60
2018-09-24T02:42:17.357Z,2.90
2018-09-24T02:43:17.320Z,3.30
2018-09-24T02:44:17.383Z,3.10
2018-09-24T02:45:17.457Z,2.90
2018-09-24T02:46:17.338Z,3.50
2018-09-24T02:47:17.397Z,3.00
2018-09-24T02:48:17.319Z,3.40
2018-09-24T02:49:17.358Z,3.00
2018-09-24T02:50:17.322Z,3.10
2018-09-24T02:51:17.370Z,3.00
2018-09-24T02:52:17.338Z,3.10
2018-09-24T02:53:17.333Z,3.30
2018-09-24T02:54:17.343Z,3.40
2018-09-24T02:55:17.343Z,3.30
2018-09-24T02:56:17.329Z,3.20
2018-09-24T02:57:17.337Z,3.50
2018-09-24T02:58:17.339Z,3.40
2018-09-24T02:59:17.332Z,3.00
2018-09-24T03:00:17.326Z,3.70
2018-09-24T03:01:17.395Z,3.60
2018-09-24T03:02:17.393Z,3.60
2018-09-24T03:03:17.349Z,3.60
2018-09-24T03:04:17.328Z,3.40
2018-09-24T03:05:17.328Z,3.20
2018-09-24T03:06:17.330Z,3.30
2018-09-24T03:07:17.341Z,3.80
2018-09-24T03:08:17.328Z,3.50
2018-09-24T03:09:17.344Z,3.40
2018-09-24T03:10:17.350Z,3.40
2018-09-24T03:11:17.318Z,3.00
2018-09-24T03:12:17.328Z,3.10
2018-09-24T03:13:17.323Z,3.10
2018-09-24T03:14:17.340Z,3.40
2018-09-24T03:15:17.322Z,3.70
2018-09-24T03:16:17.330Z,3.80
2018-09-24T03:17:17.334Z,3.40
2018-09-24T03:18:17.321Z,3.50
2018-09-24T03:19:17.315Z,3.60
2018-09-24T03:20:17.326Z,3.70
2018-09-24T03:21:17.319Z,3.20
2018-09-24T03:22:17.332Z,3.60
2018-09-24T03:23:17.341Z,3.50
2018-09-24T03:24:17.326Z,3.90
2018-09-24T03:25:17.318Z,3.60
2018-09-24T03:26:17.364Z,3.70
2018-09-24T03:27:17.373Z,3.80
2018-09-24T03:28:17.327Z,3.90
2018-09-24T03:29:17.376Z,3.70
2018-09-24T03:30:17.333Z,3.60
2018-09-24T03:31:17.340Z,4.10
2018-09-24T03:32:17.343Z,4.00
2018-09-24T03:33:17.323Z,3.80
2018-09-24T03:34:17.329Z,3.60
2018-09-24T03:35:17.329Z,4.10
2018-09-24T03:36:17.321Z,4.00
2018-09-24T03:37:17.328Z,4.00
2018-09-24T03:38:17.341Z,3.80
2018-09-24T03:39:17.312Z,4.00
2018-09-24T03:40:17.342Z,3.20
2018-09-24T03:41:17.336Z,3.60
2018-09-24T03:42:17.325Z,3.70
2018-09-24T03:43:17.319Z,7.80
2018-09-24T03:44:17.331Z,7.40
2018-09-24T03:45:17.318Z,6.30
2018-09-24T03:46:17.317Z,5.50
2018-09-24T03:47:17.360Z,4.30
2018-09-24T03:48:17.325Z,4.10
2018-09-24T03:49:17.321Z,4.70
2018-09-24T03:50:17.315Z,3.80
2018-09-24T03:51:17.353Z,3.70
2018-09-24T03:52:17.327Z,3.80
2018-09-24T03:53:17.328Z,3.90
2018-09-24T03:54:17.337Z,3.50
2018-09-24T03:55:17.344Z,4.10
2018-09-24T03:56:17.341Z,4.00
2018-09-24T03:57:17.335Z,3.80
2018-09-24T03:58:17.319Z,3.90
2018-09-24T03:59:17.319Z,3.90
2018-09-24T04:00:17.334Z,3.50
2018-09-24T04:01:17.311Z,3.90
2018-09-24T04:02:17.321Z,3.70
2018-09-24T04:03:17.518Z,4.30
2018-09-24T04:04:17.308Z,3.80
2018-09-24T04:05:17.321Z,4.20
2018-09-24T04:06:17.343Z,3.90
2018-09-24T04:07:17.319Z,4.30
2018-09-24T04:08:17.334Z,4.00
2018-09-24T04:09:17.391Z,3.80
2018-09-24T04:10:17.320Z,3.80
2018-09-24T04:11:17.330Z,3.90
2018-09-24T04:12:17.322Z,4.00
2018-09-24T04:13:17.327Z,3.70
2018-09-24T04:14:17.305Z,4.00
2018-09-24T04:15:17.315Z,5.00
2018-09-24T04:16:17.345Z,4.40
2018-09-24T04:17:17.376Z,4.20
2018-09-24T04:18:17.334Z,3.90
2018-09-24T04:19:17.368Z,4.40
2018-09-24T04:20:17.326Z,4.60
2018-09-24T04:21:17.327Z,4.60
2018-09-24T04:22:17.333Z,4.40
2018-09-24T04:23:17.318Z,4.20
2018-09-24T04:24:17.350Z,3.90
2018-09-24T04:25:17.312Z,4.10
2018-09-24T04:26:17.399Z,3.70
2018-09-24T04:27:17.328Z,4.40
2018-09-24T04:28:17.331Z,4.50
2018-09-24T04:29:17.322Z,4.00
2018-09-24T04:30:17.324Z,4.50
2018-09-24T04:31:17.338Z,5.00
2018-09-24T04:32:17.339Z,4.10
2018-09-24T04:33:17.329Z,3.90
2018-09-24T04:34:17.322Z,4.80
2018-09-24T04:35:17.323Z,4.70
2018-09-24T04:36:17.372Z,4.50
2018-09-24T04:37:17.304Z,4.40
2018-09-24T04:38:17.349Z,4.40
2018-09-24T04:39:17.320Z,4.60
2018-09-24T04:40:17.326Z,3.70
2018-09-24T04:41:17.365Z,4.70
2018-09-24T04:42:17.335Z,4.20
2018-09-24T04:43:17.343Z,4.10
2018-09-24T04:44:17.323Z,4.20
2018-09-24T04:45:17.299Z,4.30
2018-09-24T04:46:17.326Z,4.70
2018-09-24T04:47:17.306Z,4.80
2018-09-24T04:48:17.364Z,5.10
2018-09-24T04:49:17.377Z,4.40
2018-09-24T04:50:17.325Z,4.70
2018-09-24T04:51:17.296Z,4.60
2018-09-24T04:52:17.314Z,4.50
2018-09-24T04:53:17.318Z,4.20
2018-09-24T04:54:17.319Z,4.40
2018-09-24T04:55:17.304Z,5.00
2018-09-24T04:56:17.296Z,4.50
2018-09-24T04:57:17.309Z,5.00
2018-09-24T04:58:17.312Z,4.40
2018-09-24T04:59:17.314Z,4.00
2018-09-24T05:00:17.304Z,4.70
2018-09-24T05:01:17.295Z,4.30
2018-09-24T05:02:17.330Z,4.50
2018-09-24T05:03:17.306Z,4.50
2018-09-24T05:04:17.307Z,4.50
2018-09-24T05:05:17.307Z,4.60
2018-09-24T05:06:17.305Z,4.90
2018-09-24T05:07:17.307Z,4.40
2018-09-24T05:08:17.314Z,4.30
2018-09-24T05:09:17.311Z,4.10
2018-09-24T05:10:17.319Z,4.40
2018-09-24T05:11:17.306Z,4.60
2018-09-24T05:12:17.306Z,4.40
2018-09-24T05:13:17.309Z,4.40
2018-09-24T05:14:17.295Z,4.50
2018-09-24T05:15:17.303Z,4.10
2018-09-24T05:16:17.381Z,5.10
2018-09-24T05:17:17.293Z,4.50
2018-09-24T05:18:17.326Z,4.20
2018-09-24T05:19:17.325Z,4.40
2018-09-24T05:20:17.348Z,4.70
2018-09-24T05:21:17.301Z,4.40
2018-09-24T05:22:17.296Z,4.70
2018-09-24T05:23:17.290Z,4.60
2018-09-24T05:24:17.295Z,4.70
2018-09-24T05:25:17.320Z,4.50
2018-09-24T05:26:17.306Z,4.30
2018-09-24T05:27:17.329Z,4.10
2018-09-24T05:28:17.380Z,4.40
2018-09-24T05:29:17.311Z,4.30
2018-09-24T05:30:17.329Z,3.90
2018-09-24T05:31:17.318Z,4.40
2018-09-24T05:32:17.338Z,4.40
2018-09-24T05:33:17.463Z,4.30
2018-09-24T05:34:17.379Z,4.50
2018-09-24T05:35:17.282Z,4.30
2018-09-24T05:36:17.312Z,4.30
2018-09-24T05:37:17.298Z,4.40
2018-09-24T05:38:17.279Z,4.40
2018-09-24T05:39:17.304Z,4.30
2018-09-24T05:40:17.295Z,4.10
2018-09-24T05:41:17.321Z,4.70
2018-09-24T05:42:17.287Z,4.70
2018-09-24T05:43:17.309Z,4.40
2018-09-24T05:44:17.299Z,5.10
2018-09-24T05:45:17.300Z,4.20
2018-09-24T05:46:17.287Z,4.80
2018-09-24T05:47:17.279Z,4.20
2018-09-24T05:48:17.327Z,4.70
2018-09-24T05:49:17.319Z,4.10
2018-09-24T05:50:17.281Z,4.30
2018-09-24T05:51:17.300Z,4.70
2018-09-24T05:52:17.293Z,4.60
2018-09-24T05:53:17.293Z,4.10
2018-09-24T05:54:17.402Z,4.10
2018-09-24T05:55:17.285Z,4.90
2018-09-24T05:56:17.277Z,4.50
2018-09-24T05:57:17.306Z,4.30
2018-09-24T05:58:17.295Z,4.20
2018-09-24T05:59:17.292Z,4.30
2018-09-24T06:00:17.287Z,4.20
2018-09-24T06:01:17.297Z,4.50
2018-09-24T06:02:17.271Z,4.00
2018-09-24T06:03:17.282Z,4.00
2018-09-24T06:04:17.285Z,3.90
2018-09-24T06:05:17.303Z,4.60
2018-09-24T06:06:17.281Z,4.40
2018-09-24T06:07:17.295Z,4.20
2018-09-24T06:08:17.298Z,4.00
2018-09-24T06:09:17.270Z,4.00
2018-09-24T06:10:17.281Z,4.00
2018-09-24T06:11:17.285Z,4.40
2018-09-24T06:12:20.301Z,4.20
2018-09-24T06:13:17.441Z,4.20
2018-09-24T06:14:23.023Z,4.20
2018-09-24T06:15:17.273Z,4.00
2018-09-24T06:16:17.314Z,4.20
2018-09-24T06:17:17.302Z,4.50
2018-09-24T06:18:17.276Z,5.00
2018-09-24T06:19:17.292Z,4.00
2018-09-24T06:20:17.281Z,3.50
2018-09-24T06:21:17.272Z,3.60
2018-09-24T06:22:18.188Z,3.90
2018-09-24T06:23:17.308Z,3.50
2018-09-24T06:25:18.707Z,3.40
2018-09-24T06:26:17.501Z,4.00
2018-09-24T06:27:17.305Z,3.70
2018-09-24T06:28:17.314Z,3.50
2018-09-24T06:29:17.292Z,3.60
2018-09-24T06:30:17.300Z,3.30
2018-09-24T06:31:17.318Z,3.90
2018-09-24T06:32:17.367Z,3.90
2018-09-24T06:33:17.331Z,4.00
2018-09-24T06:34:17.294Z,3.80
2018-09-24T06:35:17.292Z,3.60
2018-09-24T06:36:17.289Z,3.40
2018-09-24T06:37:17.288Z,3.60
2018-09-24T06:38:17.331Z,3.60
2018-09-24T06:39:17.296Z,3.50
2018-09-24T06:40:17.324Z,3.70
2018-09-24T06:41:17.413Z,3.30
2018-09-24T06:42:17.293Z,3.80
2018-09-24T06:43:17.302Z,3.80
2018-09-24T06:44:17.281Z,4.10
2018-09-24T06:45:17.458Z,3.60
2018-09-24T06:46:17.289Z,3.20
2018-09-24T06:47:17.290Z,3.50
2018-09-24T06:48:17.298Z,3.50
2018-09-24T06:49:17.308Z,3.70
2018-09-24T06:50:17.297Z,3.30
2018-09-24T06:51:17.288Z,3.40
2018-09-24T06:52:17.289Z,3.30
2018-09-24T06:53:17.289Z,3.80
2018-09-24T06:54:17.298Z,3.50
2018-09-24T06:55:17.293Z,3.40
2018-09-24T06:56:17.288Z,3.30
2018-09-24T06:57:17.309Z,3.50
2018-09-24T06:58:17.289Z,3.50
2018-09-24T06:59:17.306Z,3.80
2018-09-24T07:00:17.463Z,3.70
2018-09-24T07:01:17.285Z,4.40
2018-09-24T07:02:17.397Z,4.50
2018-09-24T07:03:17.344Z,3.40
2018-09-24T07:04:17.394Z,3.50
2018-09-24T07:05:17.417Z,3.60
2018-09-24T07:06:17.307Z,3.50
2018-09-24T07:07:17.324Z,3.50
2018-09-24T07:08:17.299Z,3.40
2018-09-24T07:09:17.473Z,3.40
2018-09-24T07:10:17.395Z,3.70
2018-09-24T07:11:17.330Z,3.80
2018-09-24T07:12:17.345Z,3.50
2018-09-24T07:13:18.494Z,3.20
2018-09-24T07:14:17.308Z,3.20
2018-09-24T07:15:17.837Z,3.50
2018-09-24T07:16:17.324Z,3.10
2018-09-24T07:17:17.327Z,3.10
2018-09-24T07:18:18.284Z,3.70
2018-09-24T07:19:17.985Z,3.40
2018-09-24T07:20:17.322Z,3.40
2018-09-24T07:21:17.364Z,2.80
2018-09-24T07:22:17.342Z,3.00
2018-09-24T07:23:17.381Z,2.90
2018-09-24T07:24:17.364Z,2.70
2018-09-24T07:25:17.421Z,2.60
2018-09-24T07:26:17.335Z,3.20
2018-09-24T07:27:17.380Z,2.80
2018-09-24T07:28:17.353Z,3.10
2018-09-24T07:29:17.348Z,2.80
2018-09-24T07:30:17.343Z,2.60
2018-09-24T07:31:17.367Z,2.80
2018-09-24T07:32:17.392Z,2.60
2018-09-24T07:33:17.421Z,2.60
2018-09-24T07:34:22.949Z,2.90
2018-09-24T07:35:17.416Z,2.70
2018-09-24T07:36:17.400Z,2.70
2018-09-24T07:37:17.383Z,2.90
2018-09-24T07:38:17.396Z,2.90
2018-09-24T07:39:17.410Z,3.10
2018-09-24T07:40:17.429Z,2.90
2018-09-24T07:41:17.392Z,2.50
2018-09-24T07:42:17.404Z,3.10
2018-09-24T07:43:17.479Z,2.90
2018-09-24T07:44:17.429Z,3.00
2018-09-24T07:45:17.479Z,3.60
2018-09-24T07:46:17.413Z,3.00
2018-09-24T07:47:17.442Z,3.00
2018-09-24T07:48:17.427Z,2.70
2018-09-24T07:49:17.424Z,2.30
2018-09-24T07:50:17.494Z,3.00
2018-09-24T07:51:17.484Z,3.00
2018-09-24T07:52:17.424Z,3.60
2018-09-24T07:53:17.425Z,2.80
2018-09-24T07:54:17.527Z,2.50
2018-09-24T07:55:17.660Z,2.70
2018-09-24T07:56:17.724Z,2.60
2018-09-24T07:57:17.548Z,2.10
2018-09-24T07:58:17.615Z,2.40
2018-09-24T07:59:17.518Z,2.50
2018-09-24T08:00:17.489Z,2.50
2018-09-24T08:01:17.471Z,2.50
2018-09-24T08:02:17.544Z,2.20
2018-09-24T08:03:17.488Z,2.30
2018-09-24T08:04:17.530Z,2.30
2018-09-24T08:05:17.515Z,2.40
2018-09-24T08:06:17.500Z,2.60
2018-09-24T08:07:17.566Z,2.80
2018-09-24T08:08:18.362Z,2.60
2018-09-24T08:09:17.534Z,2.50
2018-09-24T08:10:17.645Z,2.50
2018-09-24T08:11:17.659Z,2.50
2018-09-24T08:12:17.570Z,2.30
2018-09-24T08:13:17.716Z,2.50
2018-09-24T08:14:17.571Z,2.50
2018-09-24T08:15:17.574Z,2.40
2018-09-24T08:16:17.676Z,2.30
2018-09-24T08:17:17.603Z,2.40
2018-09-24T08:18:17.607Z,2.30
2018-09-24T08:19:17.605Z,2.30
2018-09-24T08:20:17.843Z,3.60
2018-09-24T08:21:17.602Z,3.60
2018-09-24T08:22:17.665Z,5.00
2018-09-24T08:23:17.626Z,2.50
2018-09-24T08:24:17.628Z,3.20
2018-09-24T08:25:21.997Z,2.70
2018-09-24T08:26:17.641Z,2.70
2018-09-24T08:27:17.663Z,2.20
2018-09-24T08:28:17.697Z,2.20
2018-09-24T08:29:17.704Z,2.30
2018-09-24T08:30:17.789Z,2.30
2018-09-24T08:31:17.682Z,2.20
2018-09-24T08:32:17.760Z,2.10
2018-09-24T08:33:17.910Z,2.10
2018-09-24T08:34:17.780Z,2.60
2018-09-24T08:35:17.709Z,2.70
2018-09-24T08:36:17.837Z,2.30
2018-09-24T08:37:17.698Z,2.60
2018-09-24T08:38:17.893Z,2.10
2018-09-24T08:39:17.756Z,2.20
2018-09-24T08:40:17.764Z,2.40
2018-09-24T08:41:17.930Z,2.30
2018-09-24T08:42:17.762Z,2.10
2018-09-24T08:43:17.753Z,2.30
2018-09-24T08:44:17.753Z,2.40
2018-09-24T08:45:17.796Z,1.80
2018-09-24T08:46:17.789Z,2.10
2018-09-24T08:47:17.797Z,2.20
2018-09-24T08:48:17.791Z,2.10
2018-09-24T08:49:17.841Z,2.10
2018-09-24T08:50:17.851Z,2.40
2018-09-24T08:51:17.900Z,2.60
2018-09-24T08:52:17.971Z,2.60
2018-09-24T08:53:17.931Z,2.00
2018-09-24T08:54:17.855Z,2.00
2018-09-24T08:55:18.000Z,2.10
2018-09-24T08:56:17.954Z,1.90
2018-09-24T08:57:18.456Z,2.00
2018-09-24T08:58:17.897Z,2.10
2018-09-24T08:59:17.884Z,2.00
2018-09-24T09:00:17.867Z,2.10
2018-09-24T09:01:18.922Z,1.90
2018-09-24T09:02:17.938Z,2.20
2018-09-24T09:03:17.899Z,1.90
2018-09-24T09:04:17.919Z,2.00
2018-09-24T09:05:17.957Z,1.70
2018-09-24T09:06:17.941Z,2.20
2018-09-24T09:07:17.962Z,2.10
2018-09-24T09:08:18.062Z,2.20
2018-09-24T09:09:17.999Z,2.20
2018-09-24T09:10:18.011Z,2.40
2018-09-24T09:11:19.120Z,2.20
2018-09-24T09:12:18.021Z,2.20
2018-09-24T09:13:19.806Z,2.00
2018-09-24T09:14:19.982Z,2.20
2018-09-24T09:15:18.063Z,2.40
2018-09-24T09:16:18.448Z,2.70
2018-09-24T09:17:18.043Z,2.40
2018-09-24T09:18:20.793Z,2.20
2018-09-24T09:19:18.044Z,1.90
2018-09-24T09:20:18.228Z,2.30
2018-09-24T09:21:18.090Z,2.20
2018-09-24T09:22:18.216Z,2.00
2018-09-24T09:23:18.113Z,2.00
2018-09-24T09:24:18.164Z,1.90
2018-09-24T09:25:18.185Z,2.10
2018-09-24T09:26:18.137Z,1.90
2018-09-24T09:27:18.335Z,2.00
2018-09-24T09:28:18.195Z,2.30
2018-09-24T09:29:18.211Z,2.00
2018-09-24T09:30:23.256Z,2.00
2018-09-24T09:31:18.149Z,2.30
2018-09-24T09:32:18.170Z,1.70
2018-09-24T09:33:18.552Z,1.90
2018-09-24T09:34:18.643Z,1.80
2018-09-24T09:35:18.203Z,2.20
2018-09-24T09:36:18.221Z,2.00
2018-09-24T09:37:18.224Z,1.90
2018-09-24T09:38:18.291Z,1.80
2018-09-24T09:39:18.403Z,1.90
2018-09-24T09:40:18.257Z,1.90
2018-09-24T09:41:18.297Z,2.20
2018-09-24T09:42:18.251Z,1.90
2018-09-24T09:43:18.255Z,1.70
2018-09-24T09:44:18.270Z,1.60
2018-09-24T09:45:18.309Z,1.70
2018-09-24T09:46:18.279Z,2.10
2018-09-24T09:47:18.330Z,2.00
2018-09-24T09:48:18.356Z,1.60
2018-09-24T09:49:18.474Z,2.00
2018-09-24T09:50:18.334Z,2.30
2018-09-24T09:51:18.341Z,2.00
2018-09-24T09:52:18.451Z,2.30
2018-09-24T09:53:18.359Z,2.30
2018-09-24T09:54:18.381Z,1.70
2018-09-24T09:55:18.429Z,2.10
2018-09-24T09:56:18.362Z,2.10
2018-09-24T09:57:18.422Z,2.00
2018-09-24T09:58:18.436Z,2.10
2018-09-24T09:59:18.506Z,2.20
2018-09-24T10:00:18.552Z,3.70
2018-09-24T10:01:18.490Z,4.20
2018-09-24T10:02:18.455Z,3.00
2018-09-24T10:03:18.488Z,5.60
2018-09-24T10:04:18.449Z,2.40
2018-09-24T10:05:19.495Z,2.10
2018-09-24T10:06:18.545Z,2.20
2018-09-24T10:07:18.519Z,2.10
2018-09-24T10:08:18.642Z,2.70
2018-09-24T10:09:18.789Z,2.10
2018-09-24T10:10:18.503Z,2.00
2018-09-24T10:11:18.579Z,2.00
2018-09-24T10:12:18.519Z,2.30
2018-09-24T10:13:18.541Z,2.00
2018-09-24T10:14:18.534Z,1.90
2018-09-24T10:15:18.560Z,2.00
2018-09-24T10:16:18.528Z,2.20
2018-09-24T10:17:18.543Z,1.90
2018-09-24T10:18:18.566Z,2.10
2018-09-24T10:19:18.551Z,2.00
2018-09-24T10:20:18.554Z,2.00
2018-09-24T10:21:18.573Z,2.20
2018-09-24T10:22:18.581Z,2.20
2018-09-24T10:23:18.584Z,2.20
2018-09-24T10:24:18.620Z,1.90
2018-09-24T10:25:18.715Z,1.80
2018-09-24T10:26:18.620Z,1.90
2018-09-24T10:27:18.630Z,2.10
2018-09-24T10:28:18.631Z,2.10
2018-09-24T10:29:18.668Z,2.10
2018-09-24T10:30:18.647Z,2.50
2018-09-24T10:31:18.661Z,1.90
2018-09-24T10:32:18.669Z,1.90
2018-09-24T10:33:18.712Z,1.70
2018-09-24T10:34:18.691Z,1.90
2018-09-24T10:35:18.709Z,2.10
2018-09-24T10:36:18.698Z,1.90
2018-09-24T10:37:18.719Z,1.70
2018-09-24T10:38:18.723Z,1.90
2018-09-24T10:39:18.729Z,2.10
2018-09-24T10:40:18.727Z,2.00
2018-09-24T10:41:18.748Z,1.80
2018-09-24T10:42:18.792Z,1.90
2018-09-24T10:43:18.783Z,2.00
2018-09-24T10:44:18.782Z,1.90
2018-09-24T10:45:18.898Z,2.10
2018-09-24T10:46:18.798Z,1.80
2018-09-24T10:47:24.042Z,1.90
2018-09-24T10:48:18.808Z,1.70
2018-09-24T10:49:18.887Z,1.90
2018-09-24T10:50:18.838Z,2.00
2018-09-24T10:51:18.852Z,1.60
2018-09-24T10:52:18.842Z,1.60
2018-09-24T10:53:18.852Z,1.90
2018-09-24T10:54:18.869Z,2.00
2018-09-24T10:55:18.883Z,2.00
2018-09-24T10:56:18.894Z,1.80
2018-09-24T10:57:18.893Z,2.00
2018-09-24T10:58:21.024Z,1.90
2018-09-24T10:59:19.000Z,1.90
2018-09-24T11:00:18.935Z,1.90
2018-09-24T11:01:19.500Z,2.20
2018-09-24T11:02:18.906Z,2.00
2018-09-24T11:03:18.918Z,2.10
2018-09-24T11:04:18.936Z,1.90
2018-09-24T11:05:18.950Z,2.10
2018-09-24T11:06:18.975Z,1.80
2018-09-24T11:07:18.927Z,1.70
2018-09-24T11:08:18.963Z,1.70
2018-09-24T11:09:18.967Z,2.00
2018-09-24T11:10:19.019Z,2.00
2018-09-24T11:11:18.991Z,2.00
2018-09-24T11:12:19.009Z,1.80
2018-09-24T11:13:18.957Z,2.30
2018-09-24T11:14:18.985Z,2.00
2018-09-24T11:15:18.978Z,1.70
2018-09-24T11:16:19.104Z,1.90
2018-09-24T11:17:19.238Z,1.80
2018-09-24T11:18:19.033Z,1.90
2018-09-24T11:19:19.010Z,1.40
2018-09-24T11:20:19.012Z,1.80
2018-09-24T11:21:19.026Z,2.00
2018-09-24T11:22:19.076Z,1.80
2018-09-24T11:23:19.044Z,1.90
2018-09-24T11:24:19.048Z,1.60
2018-09-24T11:25:19.053Z,1.80
2018-09-24T11:27:19.040Z,1.60
2018-09-24T11:28:19.043Z,1.60
2018-09-24T11:29:19.100Z,1.70
2018-09-24T11:30:19.046Z,1.70
2018-09-24T11:31:19.047Z,1.70
2018-09-24T11:32:20.245Z,1.80
2018-09-24T11:33:19.072Z,2.40
2018-09-24T11:34:19.078Z,2.30
2018-09-24T11:35:19.068Z,1.90
2018-09-24T11:36:19.091Z,2.10
2018-09-24T11:37:19.092Z,2.00
2018-09-24T11:38:19.076Z,2.00
2018-09-24T11:39:19.319Z,1.90
2018-09-24T11:40:19.091Z,1.80
2018-09-24T11:41:19.114Z,2.10
2018-09-24T11:42:19.093Z,1.90
2018-09-24T11:43:19.117Z,2.00
2018-09-24T11:44:19.207Z,1.70
2018-09-24T11:45:19.119Z,1.70
2018-09-24T11:46:19.144Z,1.60
2018-09-24T11:47:19.126Z,1.80
2018-09-24T11:48:19.198Z,1.90
2018-09-24T11:49:19.135Z,2.00
2018-09-24T11:50:19.144Z,1.70
2018-09-24T11:51:19.144Z,1.70
2018-09-24T11:52:19.156Z,1.90
2018-09-24T11:53:19.168Z,1.90
2018-09-24T11:54:19.215Z,1.80
2018-09-24T11:55:19.185Z,2.40
2018-09-24T11:56:19.232Z,2.10
2018-09-24T11:57:19.223Z,1.80
2018-09-24T11:58:19.176Z,2.10
2018-09-24T11:59:19.172Z,1.80
2018-09-24T12:00:19.500Z,1.90
2018-09-24T12:01:19.197Z,1.80
2018-09-24T12:02:19.195Z,1.90
2018-09-24T12:03:19.284Z,1.90
2018-09-24T12:04:19.161Z,1.80
2018-09-24T12:05:19.168Z,1.40
2018-09-24T12:06:19.200Z,2.30
2018-09-24T12:07:19.205Z,2.00
2018-09-24T12:08:19.200Z,2.00
2018-09-24T12:09:19.325Z,1.90
2018-09-24T12:10:19.218Z,1.90
2018-09-24T12:11:19.195Z,2.00
2018-09-24T12:12:19.227Z,1.80
2018-09-24T12:13:19.232Z,2.20
2018-09-24T12:14:19.303Z,1.90
2018-09-24T12:15:19.205Z,1.90
2018-09-24T12:16:19.213Z,1.90
2018-09-24T12:17:19.201Z,2.10
2018-09-24T12:18:19.210Z,1.90
2018-09-24T12:19:19.213Z,1.80
2018-09-24T12:20:19.215Z,2.30
2018-09-24T12:21:19.228Z,2.00
2018-09-24T12:22:19.357Z,2.00
2018-09-24T12:23:19.388Z,2.20
2018-09-24T12:24:19.328Z,2.50
2018-09-24T12:25:19.264Z,2.60
2018-09-24T12:26:19.254Z,1.70
2018-09-24T12:27:19.371Z,2.20
2018-09-24T12:28:19.307Z,3.20
2018-09-24T12:29:19.297Z,3.30
2018-09-24T12:30:19.280Z,3.10
2018-09-24T12:31:19.279Z,2.70
2018-09-24T12:32:23.810Z,2.40
2018-09-24T12:33:19.404Z,2.30
2018-09-24T12:34:19.378Z,2.50
2018-09-24T12:35:19.552Z,2.20
2018-09-24T12:36:20.110Z,2.00
2018-09-24T12:37:20.710Z,2.10
2018-09-24T12:39:51.566Z,2.20
2018-09-24T12:40:51.099Z,2.30
2018-09-24T12:42:44.805Z,2.10
2018-09-24T12:43:46.716Z,2.20
2018-09-24T12:44:44.922Z,3.70
2018-09-24T12:45:44.959Z,2.80
2018-09-24T12:46:44.651Z,2.30
2018-09-24T12:47:44.921Z,2.00
2018-09-24T12:48:44.688Z,2.10
2018-09-24T12:49:44.720Z,2.00
2018-09-24T12:50:44.661Z,2.40
2018-09-24T12:51:44.703Z,2.10
2018-09-24T12:52:44.685Z,2.30
2018-09-24T12:53:44.704Z,2.00
2018-09-24T12:54:44.722Z,2.20
2018-09-24T12:55:44.733Z,2.20
2018-09-24T12:56:44.674Z,2.30
2018-09-24T12:57:44.719Z,2.00
2018-09-24T12:58:44.707Z,2.00
2018-09-24T12:59:44.691Z,2.20
2018-09-24T13:00:44.771Z,1.80
2018-09-24T13:01:44.703Z,2.10
2018-09-24T13:02:44.754Z,1.90
2018-09-24T13:03:44.770Z,2.00
2018-09-24T13:04:45.459Z,2.30
2018-09-24T13:05:44.736Z,1.90
2018-09-24T13:06:44.747Z,1.80
2018-09-24T13:07:44.705Z,2.70
2018-09-24T13:08:44.767Z,2.20
2018-09-24T13:09:44.707Z,2.40
2018-09-24T13:10:44.766Z,2.30
2018-09-24T13:11:44.723Z,2.60
2018-09-24T13:12:44.772Z,2.80
2018-09-24T13:13:44.777Z,2.30
2018-09-24T13:14:44.744Z,2.10
2018-09-24T13:15:44.774Z,2.50
2018-09-24T13:16:44.776Z,2.40
2018-09-24T13:17:44.785Z,2.20
2018-09-24T13:18:44.814Z,2.90
2018-09-24T13:19:44.776Z,2.40
2018-09-24T13:20:44.777Z,2.60
2018-09-24T13:21:44.781Z,2.50
2018-09-24T13:22:44.767Z,2.60
2018-09-24T13:23:44.810Z,2.50
2018-09-24T13:24:44.978Z,3.20
2018-09-24T13:25:44.760Z,2.40
2018-09-24T13:26:44.748Z,2.50
2018-09-24T13:27:44.750Z,3.00
2018-09-24T13:28:45.827Z,2.90
2018-09-24T13:29:44.775Z,2.70
2018-09-24T13:30:44.758Z,2.80
2018-09-24T13:31:44.760Z,3.10
2018-09-24T13:32:44.853Z,2.40
2018-09-24T13:33:44.756Z,2.90
2018-09-24T13:34:44.796Z,2.70
2018-09-24T13:35:44.825Z,2.80
2018-09-24T13:36:44.800Z,2.80